Time;durP1;ratioP1;P1;durP2;ratioP2;P2;SDS_P1;SDS_P2;PMS_P1;PMS_P2;Temp;Humidity;BMP_temperature;BMP_pressure;BME280_temperature;BME280_humidity;BME280_pressure;Samples;Min_cycle;Max_cycle;Signal;HPM_P1;HPM_P2
2022/05/13 00:01:54;;;;;;;9.10;2.30;;;;;;;12.77;65.73;101710.22;5093583;28;20089;-41
2022/05/13 00:04:20;;;;;;;12.23;2.25;;;;;;;12.92;65.72;101698.09;5093282;28;20031;-42
2022/05/13 00:06:46;;;;;;;11.98;2.00;;;;;;;12.93;65.69;101693.69;5093580;28;20023;-42
2022/05/13 00:09:11;;;;;;;10.60;2.20;;;;;;;13.01;65.43;101697.00;5093750;28;20477;-42
2022/05/13 00:11:37;;;;;;;7.55;2.00;;;;;;;13.04;65.48;101695.84;5093432;28;20024;-43
2022/05/13 00:14:03;;;;;;;8.15;1.75;;;;;;;12.86;65.79;101686.63;5093189;28;20028;-42
2022/05/13 00:16:28;;;;;;;13.45;2.05;;;;;;;12.89;65.98;101685.47;5091914;28;20035;-42
2022/05/13 00:18:54;;;;;;;12.48;2.22;;;;;;;12.89;66.30;101685.47;5093360;28;20024;-43
2022/05/13 00:21:19;;;;;;;10.63;1.92;;;;;;;12.89;66.93;101693.25;5091839;28;20530;-42
2022/05/13 00:23:44;;;;;;;16.08;2.03;;;;;;;12.98;66.38;101693.97;5093120;28;20072;-42
2022/05/13 00:26:10;;;;;;;11.50;2.03;;;;;;;13.00;66.98;101686.78;5093184;28;20403;-43
2022/05/13 00:28:35;;;;;;;9.77;2.20;;;;;;;12.94;66.92;101685.72;5093094;28;20028;-43
2022/05/13 00:31:04;;;;;;;10.15;1.98;;;;;;;12.93;67.46;101683.31;5093059;28;20115;-42
2022/05/13 00:33:30;;;;;;;10.35;1.92;;;;;;;12.98;67.64;101683.59;5093020;28;20032;-42
2022/05/13 00:35:55;;;;;;;11.20;1.83;;;;;;;13.10;67.86;101682.94;5093289;28;20027;-43
2022/05/13 00:38:20;;;;;;;10.48;2.10;;;;;;;13.02;67.94;101677.03;5093016;28;20356;-42
2022/05/13 00:40:46;;;;;;;8.88;1.90;;;;;;;13.07;67.98;101678.13;5093128;28;20028;-42
2022/05/13 00:43:14;;;;;;;19.67;2.60;;;;;;;13.05;68.34;101666.31;5093201;28;20028;-43
2022/05/13 00:45:39;;;;;;;12.55;2.38;;;;;;;13.00;69.29;101672.03;5095337;28;20032;-43
2022/05/13 00:48:06;;;;;;;9.65;2.17;;;;;;;12.95;69.53;101670.97;5097225;28;20030;-43
2022/05/13 00:50:35;;;;;;;14.85;2.42;;;;;;;13.00;69.57;101664.25;5096664;28;20016;-43
2022/05/13 00:53:02;;;;;;;13.32;2.20;;;;;;;13.05;69.97;101671.50;5096752;28;20120;-41
2022/05/13 00:55:37;;;;;;;14.48;2.65;;;;;;;13.06;69.89;101660.13;5096853;28;20035;-46
2022/05/13 00:58:07;;;;;;;13.93;2.50;;;;;;;13.02;70.97;101657.09;5096510;28;20053;-43
2022/05/13 01:00:34;;;;;;;21.98;2.65;;;;;;;13.00;71.08;101651.25;5096665;28;20072;-43
2022/05/13 01:03:00;;;;;;;11.88;2.47;;;;;;;13.19;70.55;101659.47;5097506;28;20054;-42
2022/05/13 01:05:26;;;;;;;11.52;2.17;;;;;;;13.17;71.07;101669.22;5096590;28;20077;-42
2022/05/13 01:07:51;;;;;;;15.35;2.50;;;;;;;13.19;71.22;101669.88;5096379;28;20035;-41
2022/05/13 01:10:21;;;;;;;13.75;2.70;;;;;;;13.15;71.87;101653.03;5096424;28;20016;-42
2022/05/13 01:12:50;;;;;;;15.00;2.70;;;;;;;13.12;72.42;101654.22;5095864;28;20035;-43
2022/05/13 01:15:39;;;;;;;11.93;2.58;;;;;;;13.10;73.21;101661.38;5096626;28;20540;-43
2022/05/13 01:18:05;;;;;;;14.15;2.78;;;;;;;13.11;73.53;101657.78;5095364;28;20027;-42
2022/05/13 01:20:37;;;;;;;19.88;2.83;;;;;;;13.14;73.68;101662.63;5096249;28;20044;-42
2022/05/13 01:23:11;;;;;;;18.83;2.95;;;;;;;13.21;73.84;101658.31;5096112;28;20023;-43
2022/05/13 01:25:47;;;;;;;16.60;2.88;;;;;;;13.10;74.64;101657.00;5096259;28;20020;-42
2022/05/13 01:28:18;;;;;;;24.48;2.90;;;;;;;13.13;75.08;101653.22;5093432;28;20044;-41
2022/05/13 01:30:47;;;;;;;18.42;2.92;;;;;;;13.12;75.20;101649.03;5094627;28;20111;-41
2022/05/13 01:33:13;;;;;;;17.33;2.70;;;;;;;13.14;75.45;101651.44;5096262;28;20047;-42
2022/05/13 01:35:45;;;;;;;16.40;3.15;;;;;;;13.11;76.13;101650.00;5096075;28;20016;-41
2022/05/13 01:38:11;;;;;;;16.70;3.28;;;;;;;13.13;76.60;101652.44;5094754;28;20043;-42
2022/05/13 01:40:38;;;;;;;19.80;3.20;;;;;;;13.10;77.09;101651.78;5095662;28;20024;-41
2022/05/13 01:43:03;;;;;;;23.02;3.47;;;;;;;13.26;76.89;101660.38;5095681;28;20424;-41
2022/05/13 01:45:29;;;;;;;22.80;3.60;;;;;;;13.16;77.56;101657.25;5096685;28;20032;-41
2022/05/13 01:47:54;;;;;;;17.35;3.30;;;;;;;13.17;77.98;101659.66;5095608;28;20024;-41
2022/05/13 01:50:22;;;;;;;14.30;3.22;;;;;;;13.04;78.71;101660.31;5095774;28;20051;-42
2022/05/13 01:52:47;;;;;;;24.33;3.40;;;;;;;13.03;78.92;101660.47;5095696;28;20131;-42
2022/05/13 01:55:13;;;;;;;18.83;3.17;;;;;;;13.07;79.85;101653.97;5095435;28;20528;-41
2022/05/13 01:57:38;;;;;;;20.48;3.72;;;;;;;13.02;80.58;101656.28;5093380;28;20073;-42
2022/05/13 02:00:04;;;;;;;24.05;3.88;;;;;;;13.21;79.42;101654.91;5095680;28;20035;-50
2022/05/13 02:02:29;;;;;;;16.27;3.35;;;;;;;13.23;79.75;101661.50;5095480;28;20035;-44
2022/05/13 02:04:54;;;;;;;16.70;3.80;;;;;;;13.26;79.58;101645.63;5095122;28;20051;-41
2022/05/13 02:07:19;;;;;;;21.55;3.85;;;;;;;13.27;79.66;101654.22;5095625;28;20028;-42
2022/05/13 02:09:45;;;;;;;34.40;4.22;;;;;;;13.26;79.54;101657.78;5095037;28;20098;-41
2022/05/13 02:12:10;;;;;;;19.42;3.78;;;;;;;13.00;81.03;101651.25;5094932;28;20043;-42
2022/05/13 02:14:35;;;;;;;24.70;3.58;;;;;;;13.05;81.26;101648.13;5095210;28;20080;-42
2022/05/13 02:17:01;;;;;;;20.42;3.67;;;;;;;13.16;80.94;101649.47;5093847;28;20100;-44
2022/05/13 02:19:26;;;;;;;22.83;3.63;;;;;;;13.13;81.24;101642.84;5094884;28;20024;-42
2022/05/13 02:21:51;;;;;;;20.05;4.07;;;;;;;13.15;80.96;101640.06;5095008;28;20028;-41
2022/05/13 02:24:17;;;;;;;23.05;3.85;;;;;;;13.01;82.02;101642.50;5095148;28;20031;-41
2022/05/13 02:26:42;;;;;;;21.33;3.53;;;;;;;13.06;81.69;101635.00;5094520;28;20548;-42
2022/05/13 02:29:08;;;;;;;21.55;4.57;;;;;;;13.09;82.15;101650.19;5093513;28;20024;-41
2022/05/13 02:31:34;;;;;;;24.48;4.53;;;;;;;13.00;82.48;101647.88;5094776;28;20020;-42
2022/05/13 02:33:59;;;;;;;20.38;4.25;;;;;;;13.07;81.96;101643.59;5094965;28;20028;-41
2022/05/13 02:36:26;;;;;;;21.45;4.00;;;;;;;13.04;82.25;101636.16;5094554;28;20042;-42
2022/05/13 02:38:52;;;;;;;19.80;4.18;;;;;;;13.14;81.81;101644.44;5094782;28;20103;-42
2022/05/13 02:41:17;;;;;;;27.10;3.88;;;;;;;13.10;81.72;101636.22;5094530;28;20023;-42
2022/05/13 02:43:51;;;;;;;21.08;4.03;;;;;;;13.20;81.16;101625.53;5095056;28;20030;-42
2022/05/13 02:46:22;;;;;;;22.65;3.63;;;;;;;13.14;81.52;101617.69;5093133;28;20118;-42
2022/05/13 02:48:48;;;;;;;21.83;3.58;;;;;;;13.12;81.42;101614.47;5094299;28;20028;-42
2022/05/13 02:51:15;;;;;;;19.35;3.92;;;;;;;13.10;80.72;101618.06;5094615;28;20031;-42
2022/05/13 02:53:40;;;;;;;21.13;3.95;;;;;;;13.16;80.27;101624.31;5094338;28;20020;-42
2022/05/13 02:56:07;;;;;;;19.10;3.47;;;;;;;13.01;80.70;101613.97;5093026;28;20024;-42
2022/05/13 02:58:33;;;;;;;22.67;4.07;;;;;;;13.00;80.34;101622.72;5094266;28;20042;-42
2022/05/13 03:00:58;;;;;;;19.10;3.50;;;;;;;12.95;80.41;101622.50;5094474;28;20073;-41
2022/05/13 03:03:23;;;;;;;21.80;3.70;;;;;;;12.93;79.94;101626.25;5094343;28;20028;-42
2022/05/13 03:05:49;;;;;;;17.80;3.42;;;;;;;12.87;79.88;101635.56;5094602;28;20036;-42
2022/05/13 03:08:14;;;;;;;23.40;4.25;;;;;;;12.97;79.60;101636.06;5094325;28;20111;-43
2022/05/13 03:10:39;;;;;;;19.42;3.22;;;;;;;12.87;78.47;101636.34;5094310;28;20016;-41
2022/05/13 03:13:07;;;;;;;19.27;3.50;;;;;;;12.86;78.09;101632.16;5094050;28;20459;-42
2022/05/13 03:15:33;;;;;;;14.95;3.10;;;;;;;12.84;76.50;101634.13;5093964;28;20031;-42
2022/05/13 03:17:58;;;;;;;13.25;2.53;;;;;;;12.92;75.38;101638.41;5093926;28;20020;-42
2022/05/13 03:20:25;;;;;;;13.40;3.10;;;;;;;12.90;74.81;101637.00;5094212;28;20043;-41
2022/05/13 03:22:51;;;;;;;14.15;2.50;;;;;;;13.00;74.12;101635.69;5093821;28;20023;-43
2022/05/13 03:25:19;;;;;;;16.52;2.80;;;;;;;13.05;73.59;101638.56;5093984;28;20030;-41
2022/05/13 03:27:44;;;;;;;12.50;2.35;;;;;;;13.10;73.62;101641.41;5093750;28;20048;-51
2022/05/13 03:30:15;;;;;;;15.75;3.00;;;;;;;13.11;73.02;101639.63;5093883;28;20024;-42
2022/05/13 03:32:41;;;;;;;14.35;2.35;;;;;;;13.11;72.52;101644.81;5093878;28;20028;-42
2022/05/13 03:35:08;;;;;;;12.20;2.58;;;;;;;13.02;72.35;101638.13;5092307;28;20028;-41
2022/05/13 03:37:34;;;;;;;10.32;2.40;;;;;;;13.06;72.18;101640.19;5093849;28;20027;-42
2022/05/13 03:39:59;;;;;;;8.82;2.50;;;;;;;13.00;72.59;101638.28;5093986;28;20024;-42
2022/05/13 03:42:25;;;;;;;11.30;2.58;;;;;;;12.98;72.44;101637.69;5093781;28;20485;-42
2022/05/13 03:44:50;;;;;;;12.75;2.58;;;;;;;13.04;72.30;101646.53;5093741;28;20055;-42
2022/05/13 03:47:16;;;;;;;11.50;2.75;;;;;;;12.94;72.53;101648.59;5093788;28;20057;-41
2022/05/13 03:49:42;;;;;;;14.13;3.38;;;;;;;12.99;71.97;101648.88;5094052;28;20055;-42
2022/05/13 03:52:08;;;;;;;16.98;2.92;;;;;;;13.01;72.33;101639.13;5093626;28;20027;-42
2022/05/13 03:54:34;;;;;;;12.00;2.67;;;;;;;13.07;71.60;101648.78;5093293;28;20119;-41
2022/05/13 03:56:59;;;;;;;10.75;2.50;;;;;;;13.07;72.00;101659.16;5093680;28;20058;-41
2022/05/13 03:59:24;;;;;;;14.93;2.97;;;;;;;13.01;72.58;101652.09;5093256;28;20025;-41
2022/05/13 04:01:49;;;;;;;12.18;2.60;;;;;;;13.05;72.22;101648.94;5093635;28;20028;-42
2022/05/13 04:04:20;;;;;;;12.88;2.70;;;;;;;13.13;71.48;101644.66;5093321;28;20496;-42
2022/05/13 04:09:29;;;;;;;7.90;2.40;;;;;;;13.08;71.85;101648.56;5093733;28;20043;-42
2022/05/13 04:17:22;;;;;;;14.98;2.85;;;;;;;12.95;72.13;101647.63;5093587;28;20115;-41
2022/05/13 04:19:47;;;;;;;26.95;2.67;;;;;;;13.06;72.44;101654.94;5094749;28;20510;-40
2022/05/13 04:22:13;;;;;;;11.55;3.03;;;;;;;13.17;71.54;101649.28;5097302;28;20421;-42
2022/05/13 04:24:38;;;;;;;15.50;2.58;;;;;;;13.16;71.47;101650.25;5097415;28;20028;-41
2022/05/13 04:27:04;;;;;;;10.63;2.53;;;;;;;13.18;71.30;101642.31;5096902;28;20044;-41
2022/05/13 04:29:30;;;;;;;11.02;2.40;;;;;;;13.10;71.79;101651.00;5097350;28;20040;-42
2022/05/13 04:31:55;;;;;;;14.07;2.70;;;;;;;13.12;71.82;101662.00;5095925;28;20073;-41
2022/05/13 04:34:20;;;;;;;9.25;2.70;;;;;;;13.13;71.89;101660.22;5097272;28;20242;-42
2022/05/13 04:36:46;;;;;;;12.05;2.70;;;;;;;13.02;72.43;101657.09;5097519;28;20028;-42
2022/05/13 04:39:13;;;;;;;12.18;2.80;;;;;;;13.05;71.98;101659.31;5097075;28;20359;-42
2022/05/13 04:44:23;;;;;;;8.70;3.05;;;;;;;13.03;72.11;101676.88;5097436;28;20035;-42
2022/05/13 04:46:49;;;;;;;14.10;3.00;;;;;;;13.07;72.53;101675.53;5096915;28;20020;-42
2022/05/13 04:49:14;;;;;;;12.48;2.70;;;;;;;13.14;72.23;101683.38;5096665;28;20102;-41
2022/05/13 04:51:40;;;;;;;9.15;2.42;;;;;;;13.13;72.39;101679.19;5096794;28;20106;-42
2022/05/13 04:54:06;;;;;;;13.68;3.25;;;;;;;13.19;72.67;101681.03;5096633;28;20099;-42
2022/05/13 04:56:32;;;;;;;9.45;2.47;;;;;;;13.25;72.55;101693.31;5096835;28;20028;-41
2022/05/13 04:58:58;;;;;;;11.73;3.17;;;;;;;13.37;71.85;101692.84;5096488;28;20024;-42
2022/05/13 05:01:25;;;;;;;13.80;2.53;;;;;;;13.32;72.35;101693.38;5096472;28;20089;-42
2022/05/13 05:03:51;;;;;;;9.18;2.42;;;;;;;13.30;72.65;101698.78;5096974;28;20028;-41
2022/05/13 05:06:18;;;;;;;16.05;3.10;;;;;;;13.43;72.12;101702.50;5096419;28;20035;-40
2022/05/13 05:08:44;;;;;;;13.23;2.80;;;;;;;13.52;72.25;101702.22;5096135;28;20028;-42
2022/05/13 05:11:10;;;;;;;15.60;2.92;;;;;;;13.64;71.85;101699.16;5096723;28;20024;-42
2022/05/13 05:13:38;;;;;;;13.63;2.80;;;;;;;13.48;72.39;101706.16;5096516;28;20115;-41
2022/05/13 05:16:07;;;;;;;12.93;2.78;;;;;;;13.59;72.31;101702.28;5096549;28;20459;-41
2022/05/13 05:18:34;;;;;;;10.55;2.47;;;;;;;13.54;72.41;101700.22;5096110;28;20020;-41
2022/05/13 05:21:00;;;;;;;11.93;2.80;;;;;;;13.60;72.52;101705.69;5094760;28;20024;-42
2022/05/13 05:23:29;;;;;;;9.98;2.10;;;;;;;13.64;72.19;101702.53;5095968;28;20031;-41
2022/05/13 05:25:55;;;;;;;13.32;2.50;;;;;;;13.62;72.39;101706.31;5096391;28;20088;-43
2022/05/13 05:28:20;;;;;;;19.90;2.88;;;;;;;13.64;72.67;101709.53;5077690;28;20051;-42
2022/05/13 05:30:46;;;;;;;7.60;2.40;;;;;;;13.73;72.30;101713.63;5094206;28;20024;-40
2022/05/13 05:33:12;;;;;;;16.73;2.65;;;;;;;13.65;72.49;101711.13;5095322;28;20035;-41
2022/05/13 05:35:38;;;;;;;11.10;2.53;;;;;;;13.75;72.11;101716.81;5095890;28;20058;-41
2022/05/13 05:38:04;;;;;;;11.25;2.83;;;;;;;13.59;72.44;101722.25;5095878;28;20179;-41
2022/05/13 05:40:30;;;;;;;13.52;2.40;;;;;;;13.63;73.03;101736.47;5096008;28;20035;-41
2022/05/13 05:42:56;;;;;;;14.10;2.60;;;;;;;13.72;72.44;101728.41;5096335;28;20030;-42
2022/05/13 05:45:22;;;;;;;10.57;2.45;;;;;;;13.72;72.74;101733.59;5095745;28;20115;-42
2022/05/13 05:47:48;;;;;;;12.82;2.60;;;;;;;13.84;71.85;101740.88;5096030;28;20105;-42
2022/05/13 05:50:16;;;;;;;15.23;2.60;;;;;;;13.63;72.11;101744.28;5096185;28;20447;-41
2022/05/13 05:52:42;;;;;;;16.42;2.60;;;;;;;13.65;71.26;101740.50;5095922;28;20447;-42
2022/05/13 05:57:58;;;;;;;11.43;2.20;;;;;;;13.85;71.34;101751.09;5095692;28;20124;-42
2022/05/13 06:00:23;;;;;;;13.57;2.20;;;;;;;14.06;70.56;101752.91;5095257;28;20069;-41
2022/05/13 06:02:49;;;;;;;12.25;2.20;;;;;;;14.08;70.73;101747.53;5095232;28;20051;-42
2022/05/13 06:05:14;;;;;;;11.68;2.20;;;;;;;14.05;70.35;101758.28;5095877;28;20422;-42
2022/05/13 06:07:39;;;;;;;8.43;2.00;;;;;;;14.04;69.84;101761.88;5095208;28;20028;-42
2022/05/13 06:10:05;;;;;;;12.35;2.55;;;;;;;13.95;70.12;101768.97;5095358;28;20032;-42
2022/05/13 06:12:30;;;;;;;11.90;2.38;;;;;;;13.82;70.10;101768.84;5095429;28;20024;-43
2022/05/13 06:14:56;;;;;;;13.50;2.30;;;;;;;13.83;69.96;101770.47;5095417;28;20020;-42
2022/05/13 06:17:21;;;;;;;7.22;1.80;;;;;;;13.97;69.95;101778.19;5095135;28;20032;-42
2022/05/13 06:19:46;;;;;;;13.98;2.25;;;;;;;14.13;69.26;101766.78;5094872;28;20375;-42
2022/05/13 06:22:11;;;;;;;10.48;2.05;;;;;;;14.14;68.96;101770.97;5095221;28;20024;-43
2022/05/13 06:24:37;;;;;;;9.80;2.08;;;;;;;14.20;68.61;101777.22;5095446;28;20028;-42
2022/05/13 06:27:03;;;;;;;18.65;2.80;;;;;;;14.13;68.20;101774.56;5094716;28;20059;-42
2022/05/13 06:29:28;;;;;;;16.35;2.75;;;;;;;14.50;67.42;101779.66;5094756;28;20020;-42
2022/05/13 06:31:54;;;;;;;9.10;2.08;;;;;;;14.60;67.60;101773.16;5094203;28;20024;-41
2022/05/13 06:34:22;;;;;;;15.15;2.35;;;;;;;14.67;66.52;101773.22;5095011;28;20024;-42
2022/05/13 06:36:47;;;;;;;14.20;2.42;;;;;;;14.84;66.08;101774.53;5095197;28;20408;-41
2022/05/13 06:39:13;;;;;;;11.25;1.98;;;;;;;14.81;65.50;101777.50;5094408;28;20082;-41
2022/05/13 06:41:40;;;;;;;11.65;2.00;;;;;;;15.12;65.09;101781.50;5094728;28;20048;-41
2022/05/13 06:44:06;;;;;;;9.50;2.13;;;;;;;14.98;65.27;101779.81;5094229;28;20028;-42
2022/05/13 06:46:31;;;;;;;12.38;2.10;;;;;;;15.46;63.53;101788.47;5094357;28;20028;-42
2022/05/13 06:48:58;;;;;;;11.57;2.00;;;;;;;15.21;64.66;101788.16;5095371;28;20139;-40
2022/05/13 06:51:24;;;;;;;13.68;2.05;;;;;;;15.08;64.96;101780.28;5094241;28;20020;-41
2022/05/13 06:53:50;;;;;;;11.23;2.00;;;;;;;15.29;62.71;101782.78;5094600;28;20032;-41
2022/05/13 06:56:15;;;;;;;9.57;1.88;;;;;;;15.68;62.15;101780.53;5094507;28;20078;-40
2022/05/13 06:58:40;;;;;;;7.68;1.83;;;;;;;15.44;62.52;101787.84;5092861;28;20016;-42
2022/05/13 07:01:06;;;;;;;12.88;1.90;;;;;;;16.02;61.08;101782.22;5094172;28;20387;-41
2022/05/13 07:03:31;;;;;;;9.40;1.83;;;;;;;19.20;51.55;101789.56;5094095;28;20020;-41
2022/05/13 07:05:56;;;;;;;9.80;1.83;;;;;;;18.19;53.26;101790.72;5092805;28;20016;-41
2022/05/13 07:08:22;;;;;;;13.75;1.92;;;;;;;18.32;52.79;101795.03;5094163;28;20024;-41
2022/05/13 07:10:47;;;;;;;9.30;1.73;;;;;;;18.81;50.10;101796.03;5093706;28;20024;-40
2022/05/13 07:13:14;;;;;;;11.57;2.10;;;;;;;20.28;49.50;101798.38;5092530;28;20356;-41
2022/05/13 07:15:40;;;;;;;8.77;1.80;;;;;;;20.49;47.82;101808.31;5093711;28;20074;-41
2022/05/13 07:18:06;;;;;;;11.43;1.80;;;;;;;22.24;43.00;101810.69;5094162;28;20020;-42
2022/05/13 07:20:31;;;;;;;7.72;1.80;;;;;;;22.08;42.26;101814.88;5093939;28;20131;-42
2022/05/13 07:22:56;;;;;;;10.07;1.90;;;;;;;20.93;44.95;101815.88;5093598;28;20032;-41
2022/05/13 07:25:23;;;;;;;9.48;1.88;;;;;;;19.62;48.04;101815.84;5094082;28;20409;-42
2022/05/13 07:27:48;;;;;;;8.45;1.88;;;;;;;18.57;50.88;101808.09;5093408;28;20058;-42
2022/05/13 07:30:14;;;;;;;6.95;1.70;;;;;;;18.02;52.23;101814.75;5092623;28;20024;-41
2022/05/13 07:32:40;;;;;;;7.55;1.77;;;;;;;18.02;52.98;101809.53;5093391;28;20136;-41
2022/05/13 07:35:06;;;;;;;8.85;2.20;;;;;;;17.40;53.68;101818.84;5093711;28;20024;-41
2022/05/13 07:37:32;;;;;;;10.35;1.77;;;;;;;18.49;51.28;101817.81;5093778;28;20030;-41
2022/05/13 07:42:41;;;;;;;12.32;2.13;;;;;;;17.80;53.60;101834.38;5093718;28;20585;-41
2022/05/13 07:45:07;;;;;;;10.07;2.10;;;;;;;17.86;53.60;101836.16;5092689;28;20248;-42
2022/05/13 07:47:34;;;;;;;9.73;1.77;;;;;;;17.70;54.44;101826.19;5093447;28;20028;-41
2022/05/13 07:50:00;;;;;;;11.38;2.20;;;;;;;19.17;50.29;101827.47;5075548;28;20411;-44
2022/05/13 07:52:26;;;;;;;11.10;1.90;;;;;;;18.84;50.19;101827.00;5092848;28;20043;-42
2022/05/13 07:54:51;;;;;;;6.30;1.70;;;;;;;18.96;49.54;101827.91;5092663;28;20348;-41
2022/05/13 07:57:17;;;;;;;9.50;1.70;;;;;;;18.65;50.86;101844.50;5093891;28;20054;-42
2022/05/13 08:02:26;;;;;;;8.65;1.65;;;;;;;17.74;52.55;101840.44;5093978;28;20121;-42
2022/05/13 08:04:51;;;;;;;7.68;1.63;;;;;;;17.69;53.17;101835.00;5093314;28;20058;-42
2022/05/13 08:07:17;;;;;;;7.57;2.10;;;;;;;17.59;54.49;101840.69;5093004;28;20074;-42
2022/05/13 08:09:42;;;;;;;6.78;1.75;;;;;;;17.54;53.49;101843.91;5093767;28;20466;-43
2022/05/13 08:12:07;;;;;;;7.68;1.70;;;;;;;17.33;53.93;101852.84;5094056;28;20024;-42
2022/05/13 08:14:33;;;;;;;7.13;1.65;;;;;;;17.94;52.70;101842.97;5092605;28;20382;-42
2022/05/13 08:16:58;;;;;;;7.25;1.75;;;;;;;18.35;51.56;101836.47;5092835;28;20035;-41
2022/05/13 08:19:23;;;;;;;9.70;1.88;;;;;;;18.11;51.88;101835.44;5092007;28;20459;-41
2022/05/13 08:21:48;;;;;;;5.95;1.48;;;;;;;17.73;53.48;101844.06;5093773;28;20027;-54
2022/05/13 08:24:14;;;;;;;11.07;1.65;;;;;;;18.03;53.06;101837.28;5093239;28;20050;-43
2022/05/13 08:26:39;;;;;;;7.43;1.90;;;;;;;18.09;52.71;101845.28;5093439;28;20135;-42
2022/05/13 08:29:04;;;;;;;7.20;1.63;;;;;;;18.00;52.93;101842.91;5093655;28;20008;-42
2022/05/13 08:31:30;;;;;;;8.90;1.90;;;;;;;18.12;52.91;101844.88;5093168;28;20016;-42
2022/05/13 08:33:55;;;;;;;9.63;2.08;;;;;;;18.81;51.63;101853.63;5093381;28;20032;-41
2022/05/13 08:36:20;;;;;;;10.00;1.50;;;;;;;17.80;51.56;101863.94;5093035;28;20031;-42
2022/05/13 08:38:47;;;;;;;8.68;1.90;;;;;;;17.82;53.00;101855.91;5092826;28;20020;-42
2022/05/13 08:41:41;;;;;;;8.73;1.58;;;;;;;18.28;51.22;101862.69;5092960;28;20069;-42
2022/05/13 08:44:09;;;;;;;12.13;1.83;;;;;;;18.36;51.20;101862.44;5092573;28;20031;-41
2022/05/13 08:46:39;;;;;;;8.60;1.80;;;;;;;18.61;51.43;101864.25;5093620;28;20023;-42
2022/05/13 08:49:38;;;;;;;7.28;1.80;;;;;;;19.45;49.77;101860.25;5093385;28;20385;-41
2022/05/13 08:55:30;;;;;;;9.13;1.83;;;;;;;19.56;49.21;101872.59;5093241;28;20493;-44
2022/05/13 08:57:59;;;;;;;5.93;1.50;;;;;;;21.02;45.74;101864.41;5092644;28;20024;-44
2022/05/13 09:00:49;;;;;;;6.68;1.80;;;;;;;20.24;46.96;101861.00;5092579;28;20026;-41
2022/05/13 09:03:28;;;;;;;9.55;1.73;;;;;;;19.24;48.52;101879.00;5091706;28;20447;-40
2022/05/13 09:06:04;;;;;;;6.47;1.70;;;;;;;18.52;50.58;101873.38;5093776;28;20070;-42
2022/05/13 09:08:30;;;;;;;7.43;1.90;;;;;;;18.62;50.41;101877.13;5096469;28;20102;-42
2022/05/13 09:11:12;;;;;;;9.93;2.03;;;;;;;18.41;50.54;101885.31;5096199;28;20016;-41
2022/05/13 09:14:31;;;;;;;8.05;1.70;;;;;;;19.16;49.22;101882.69;5096311;28;20023;-42
2022/05/13 09:17:32;;;;;;;8.65;2.10;;;;;;;19.46;48.72;101874.94;5041585;28;20037;-43
2022/05/13 09:20:01;;;;;;;6.65;1.92;;;;;;;19.35;48.13;101878.28;5096459;28;20024;-41
2022/05/13 09:22:38;;;;;;;12.85;1.80;;;;;;;19.13;49.18;101878.72;5096043;28;20405;-42
2022/05/13 09:25:04;;;;;;;8.90;2.03;;;;;;;19.73;48.32;101877.25;5096074;28;20032;-41
2022/05/13 09:27:42;;;;;;;12.90;2.10;;;;;;;20.76;45.37;101878.00;5096113;28;20098;-42
2022/05/13 09:30:08;;;;;;;9.20;1.88;;;;;;;19.86;46.89;101884.97;5096361;28;20020;-41
2022/05/13 09:32:33;;;;;;;9.50;1.90;;;;;;;20.54;47.37;101883.78;5094900;28;20032;-42
2022/05/13 09:35:05;;;;;;;10.73;1.60;;;;;;;18.75;49.62;101886.72;5095614;28;20078;-43
2022/05/13 09:37:40;;;;;;;6.20;1.70;;;;;;;19.80;48.23;101884.03;5096331;28;20028;-42
2022/05/13 09:40:11;;;;;;;11.15;1.50;;;;;;;21.08;46.12;101892.38;5095072;28;20039;-41
2022/05/13 09:42:42;;;;;;;7.65;2.00;;;;;;;19.63;46.60;101883.00;5095199;28;20038;-43
2022/05/13 09:45:25;;;;;;;6.00;1.80;;;;;;;19.90;46.81;101877.44;5096408;28;20110;-42
2022/05/13 09:48:07;;;;;;;6.90;1.90;;;;;;;20.29;47.45;101882.16;5096026;28;20111;-43
2022/05/13 09:50:50;;;;;;;8.23;2.28;;;;;;;20.40;45.92;101879.75;5095957;28;20023;-41
2022/05/13 09:53:21;;;;;;;8.40;2.42;;;;;;;20.40;46.74;101879.75;5095563;28;20028;-43
2022/05/13 09:55:49;;;;;;;8.57;1.92;;;;;;;21.07;44.89;101885.53;5095507;28;20024;-43
2022/05/13 09:58:19;;;;;;;7.93;1.85;;;;;;;21.07;44.81;101880.28;5095463;28;20034;-42
2022/05/13 10:00:48;;;;;;;9.98;1.88;;;;;;;21.11;45.01;101891.13;5096201;28;20030;-43
2022/05/13 10:03:19;;;;;;;8.85;1.90;;;;;;;19.94;47.12;101887.28;5094839;28;20024;-43
2022/05/13 10:05:51;;;;;;;10.30;1.90;;;;;;;19.37;48.34;101895.41;5092771;28;20032;-41
2022/05/13 10:08:20;;;;;;;9.98;2.05;;;;;;;19.60;48.77;101899.97;5094933;28;20054;-42
2022/05/13 10:14:08;;;;;;;10.48;2.10;;;;;;;20.10;46.77;101898.97;5096234;28;20481;-42
2022/05/13 10:16:38;;;;;;;7.47;1.90;;;;;;;20.18;47.86;101890.00;5095347;28;20095;-42
2022/05/13 10:19:20;;;;;;;7.53;2.08;;;;;;;19.60;48.49;101899.97;5094658;28;20020;-41
2022/05/13 10:21:49;;;;;;;10.65;2.13;;;;;;;19.12;48.84;101892.03;5094800;28;20028;-41
2022/05/13 10:24:45;;;;;;;7.97;2.00;;;;;;;18.86;50.02;101898.31;5094566;28;20020;-43
2022/05/13 10:27:21;;;;;;;7.50;2.08;;;;;;;19.01;49.67;101895.34;5094851;28;20123;-41
2022/05/13 10:29:51;;;;;;;13.00;1.73;;;;;;;18.95;49.04;101907.50;5094819;28;20024;-42
2022/05/13 10:32:40;;;;;;;8.40;1.83;;;;;;;20.06;47.40;101905.69;5095079;28;20048;-43
2022/05/13 10:35:09;;;;;;;12.68;2.15;;;;;;;19.06;47.96;101885.84;5094775;28;20052;-42
2022/05/13 10:37:50;;;;;;;8.52;1.73;;;;;;;19.33;48.98;101901.28;5095285;28;20032;-42
2022/05/13 10:40:19;;;;;;;9.70;1.92;;;;;;;19.45;48.37;101898.72;5093159;28;20166;-42
2022/05/13 10:42:56;;;;;;;8.38;1.83;;;;;;;20.98;45.37;101909.78;5094601;28;20097;-42
2022/05/13 10:45:25;;;;;;;10.27;2.13;;;;;;;19.89;45.85;101905.50;5094863;28;20378;-41
2022/05/13 10:48:02;;;;;;;6.72;2.00;;;;;;;20.18;45.70;101909.16;5094743;28;20380;-42
2022/05/13 10:51:00;;;;;;;5.72;1.85;;;;;;;20.96;42.15;101910.78;5094971;28;20351;-42
2022/05/13 10:53:50;;;;;;;4.93;1.80;;;;;;;20.69;43.92;101905.19;5094308;28;20052;-42
2022/05/13 10:56:38;;;;;;;8.20;1.90;;;;;;;20.63;43.84;101900.03;5094592;28;20028;-42
2022/05/13 10:59:36;;;;;;;7.45;2.00;;;;;;;21.35;42.17;101907.69;5094540;28;20589;-42
2022/05/13 11:02:30;;;;;;;8.70;1.63;;;;;;;20.71;44.83;101905.78;5094801;28;20061;-42
2022/05/13 11:05:06;;;;;;;8.07;1.80;;;;;;;21.82;41.56;101902.31;5083224;28;20043;-43
2022/05/13 11:07:43;;;;;;;7.22;1.98;;;;;;;22.43;40.67;101895.50;5094557;28;20070;-42
2022/05/13 11:10:25;;;;;;;6.85;1.70;;;;;;;22.58;40.21;101891.50;5094036;28;20108;-42
2022/05/13 11:13:01;;;;;;;10.05;2.05;;;;;;;20.81;41.85;101894.69;5094083;28;20023;-42
2022/05/13 11:15:49;;;;;;;8.05;2.15;;;;;;;21.27;40.95;101900.16;5094467;28;20459;-41
2022/05/13 11:18:37;;;;;;;5.45;1.67;;;;;;;21.72;40.03;101904.75;5092831;28;20049;-41
2022/05/13 11:21:14;;;;;;;6.70;2.08;;;;;;;21.85;40.37;101900.00;5094388;28;20028;-40
2022/05/13 11:27:05;;;;;;;6.10;1.70;;;;;;;20.31;42.07;101900.28;5094229;28;20058;-41
2022/05/13 11:29:39;;;;;;;7.70;1.70;;;;;;;20.67;41.34;101904.59;5092910;28;20063;-42
2022/05/13 11:32:20;;;;;;;7.47;1.60;;;;;;;21.38;41.85;101905.41;5093715;28;20031;-42
2022/05/13 11:35:20;;;;;;;11.30;2.08;;;;;;;22.34;40.43;101911.94;5093791;28;20118;-42
2022/05/13 11:37:46;;;;;;;7.70;1.88;;;;;;;22.77;38.74;101903.41;5094347;28;20405;-41
2022/05/13 11:40:19;;;;;;;9.68;2.00;;;;;;;22.67;38.77;101911.13;5093951;28;20368;-41
2022/05/13 11:43:20;;;;;;;5.72;1.67;;;;;;;22.53;37.92;101919.38;5093950;28;20030;-41
2022/05/13 11:46:00;;;;;;;6.57;1.77;;;;;;;21.82;41.24;101911.00;5093590;28;20027;-41
2022/05/13 11:48:34;;;;;;;14.57;1.90;;;;;;;22.36;39.03;101915.94;5094347;28;20031;-42
2022/05/13 11:51:21;;;;;;;7.90;2.00;;;;;;;22.76;38.69;101912.34;5093939;28;20012;-41
2022/05/13 11:53:53;;;;;;;9.32;1.60;;;;;;;22.89;38.89;101912.00;5080052;28;20047;-41
2022/05/13 11:56:31;;;;;;;12.43;1.85;;;;;;;22.69;37.86;101923.03;5093641;28;20024;-41
2022/05/13 11:59:31;;;;;;;10.25;2.00;;;;;;;22.77;38.01;101906.03;5093875;28;20028;-41